sensor_id;sensor_type;location;lat;lon;timestamp;temperature;humidity
31991;DHT22;18508;49.386;8.370;2022-09-16T00:00:10;15.70;99.90
31991;DHT22;18508;49.386;8.370;2022-09-16T00:02:40;15.60;99.90
31991;DHT22;18508;49.386;8.370;2022-09-16T00:05:09;15.60;99.90
31991;DHT22;18508;49.386;8.370;2022-09-16T00:07:40;15.50;99.90
31991;DHT22;18508;49.386;8.370;2022-09-16T00:10:09;15.50;99.90
31991;DHT22;18508;49.386;8.370;2022-09-16T00:12:41;15.50;99.90
31991;DHT22;18508;49.386;8.370;2022-09-16T00:15:10;15.40;99.90
31991;DHT22;18508;49.386;8.370;2022-09-16T00:17:40;15.40;99.90
31991;DHT22;18508;49.386;8.370;2022-09-16T00:20:11;15.40;99.90
31991;DHT22;18508;49.386;8.370;2022-09-16T00:22:41;15.40;99.90
31991;DHT22;18508;49.386;8.370;2022-09-16T00:25:09;15.30;99.90
31991;DHT22;18508;49.386;8.370;2022-09-16T00:27:45;15.40;99.90
31991;DHT22;18508;49.386;8.370;2022-09-16T00:30:16;15.30;99.90
31991;DHT22;18508;49.386;8.370;2022-09-16T00:32:45;15.30;99.90
31991;DHT22;18508;49.386;8.370;2022-09-16T00:35:15;15.20;99.90
31991;DHT22;18508;49.386;8.370;2022-09-16T00:37:44;15.20;99.90
31991;DHT22;18508;49.386;8.370;2022-09-16T00:40:17;15.20;99.90
31991;DHT22;18508;49.386;8.370;2022-09-16T00:42:50;15.20;99.90
31991;DHT22;18508;49.386;8.370;2022-09-16T00:45:23;15.20;99.90
31991;DHT22;18508;49.386;8.370;2022-09-16T00:47:56;15.20;99.90
31991;DHT22;18508;49.386;8.370;2022-09-16T00:50:30;15.20;99.90
31991;DHT22;18508;49.386;8.370;2022-09-16T00:53:02;15.10;99.90
31991;DHT22;18508;49.386;8.370;2022-09-16T00:55:33;15.10;99.90
31991;DHT22;18508;49.386;8.370;2022-09-16T00:58:08;15.10;99.90
31991;DHT22;18508;49.386;8.370;2022-09-16T01:00:40;15.10;99.90
31991;DHT22;18508;49.386;8.370;2022-09-16T01:03:10;15.10;99.90
31991;DHT22;18508;49.386;8.370;2022-09-16T01:05:39;15.00;99.90
31991;DHT22;18508;49.386;8.370;2022-09-16T01:08:07;15.00;99.90
31991;DHT22;18508;49.386;8.370;2022-09-16T01:10:40;14.90;99.90
31991;DHT22;18508;49.386;8.370;2022-09-16T01:13:12;14.90;99.90
31991;DHT22;18508;49.386;8.370;2022-09-16T01:15:50;14.80;99.90
31991;DHT22;18508;49.386;8.370;2022-09-16T01:18:25;14.80;99.90
31991;DHT22;18508;49.386;8.370;2022-09-16T01:21:08;14.80;99.90
31991;DHT22;18508;49.386;8.370;2022-09-16T01:30:13;14.70;99.90
31991;DHT22;18508;49.386;8.370;2022-09-16T01:32:57;14.70;99.90
31991;DHT22;18508;49.386;8.370;2022-09-16T01:35:39;14.70;99.90
31991;DHT22;18508;49.386;8.370;2022-09-16T01:38:24;14.70;99.90
31991;DHT22;18508;49.386;8.370;2022-09-16T01:41:01;14.70;99.90
31991;DHT22;18508;49.386;8.370;2022-09-16T01:43:42;14.70;99.90
31991;DHT22;18508;49.386;8.370;2022-09-16T01:46:20;14.70;99.90
31991;DHT22;18508;49.386;8.370;2022-09-16T01:48:56;14.70;99.90
31991;DHT22;18508;49.386;8.370;2022-09-16T01:51:28;14.70;99.90
31991;DHT22;18508;49.386;8.370;2022-09-16T01:54:04;14.70;99.90
31991;DHT22;18508;49.386;8.370;2022-09-16T01:56:41;14.70;99.90
31991;DHT22;18508;49.386;8.370;2022-09-16T01:59:14;14.80;99.90
31991;DHT22;18508;49.386;8.370;2022-09-16T02:01:48;14.80;99.90
31991;DHT22;18508;49.386;8.370;2022-09-16T02:04:23;14.80;99.90
31991;DHT22;18508;49.386;8.370;2022-09-16T02:06:56;14.70;99.90
31991;DHT22;18508;49.386;8.370;2022-09-16T02:09:31;14.70;99.90
31991;DHT22;18508;49.386;8.370;2022-09-16T02:12:03;14.70;99.90
31991;DHT22;18508;49.386;8.370;2022-09-16T02:14:36;14.80;99.90
31991;DHT22;18508;49.386;8.370;2022-09-16T02:17:09;14.80;99.90
31991;DHT22;18508;49.386;8.370;2022-09-16T02:19:42;14.80;99.90
31991;DHT22;18508;49.386;8.370;2022-09-16T02:22:14;14.80;99.90
31991;DHT22;18508;49.386;8.370;2022-09-16T02:24:45;14.80;99.90
31991;DHT22;18508;49.386;8.370;2022-09-16T02:27:17;14.80;99.90
31991;DHT22;18508;49.386;8.370;2022-09-16T02:29:50;14.80;99.90
31991;DHT22;18508;49.386;8.370;2022-09-16T02:32:23;14.80;99.90
31991;DHT22;18508;49.386;8.370;2022-09-16T02:34:55;14.80;99.90
31991;DHT22;18508;49.386;8.370;2022-09-16T02:37:29;14.70;99.90
31991;DHT22;18508;49.386;8.370;2022-09-16T02:39:58;14.70;99.90
31991;DHT22;18508;49.386;8.370;2022-09-16T02:42:28;14.80;99.90
31991;DHT22;18508;49.386;8.370;2022-09-16T02:44:59;14.80;99.90
31991;DHT22;18508;49.386;8.370;2022-09-16T02:47:31;14.80;99.90
31991;DHT22;18508;49.386;8.370;2022-09-16T02:50:24;14.80;99.90
31991;DHT22;18508;49.386;8.370;2022-09-16T02:52:59;14.80;99.90
31991;DHT22;18508;49.386;8.370;2022-09-16T02:55:35;14.80;99.90
31991;DHT22;18508;49.386;8.370;2022-09-16T02:58:05;14.80;99.90
31991;DHT22;18508;49.386;8.370;2022-09-16T03:00:37;14.80;99.90
31991;DHT22;18508;49.386;8.370;2022-09-16T03:03:08;14.80;99.90
31991;DHT22;18508;49.386;8.370;2022-09-16T03:06:15;14.80;99.90
31991;DHT22;18508;49.386;8.370;2022-09-16T03:08:48;14.80;99.90
31991;DHT22;18508;49.386;8.370;2022-09-16T03:14:17;14.90;99.90
31991;DHT22;18508;49.386;8.370;2022-09-16T03:16:55;14.90;99.90
31991;DHT22;18508;49.386;8.370;2022-09-16T03:19:36;14.90;99.90
31991;DHT22;18508;49.386;8.370;2022-09-16T03:22:16;14.90;99.90
31991;DHT22;18508;49.386;8.370;2022-09-16T03:24:55;14.90;99.90
31991;DHT22;18508;49.386;8.370;2022-09-16T03:27:31;14.90;99.90
31991;DHT22;18508;49.386;8.370;2022-09-16T03:30:09;14.90;99.90
31991;DHT22;18508;49.386;8.370;2022-09-16T03:32:42;14.90;99.90
31991;DHT22;18508;49.386;8.370;2022-09-16T03:35:15;14.90;99.90
31991;DHT22;18508;49.386;8.370;2022-09-16T03:37:48;14.90;99.90
31991;DHT22;18508;49.386;8.370;2022-09-16T03:40:19;14.90;99.90
31991;DHT22;18508;49.386;8.370;2022-09-16T03:42:50;14.90;99.90
31991;DHT22;18508;49.386;8.370;2022-09-16T03:45:20;14.90;99.90
31991;DHT22;18508;49.386;8.370;2022-09-16T03:47:52;14.90;99.90
31991;DHT22;18508;49.386;8.370;2022-09-16T03:50:21;14.90;99.90
31991;DHT22;18508;49.386;8.370;2022-09-16T03:52:52;14.90;99.90
31991;DHT22;18508;49.386;8.370;2022-09-16T03:55:21;14.80;99.90
31991;DHT22;18508;49.386;8.370;2022-09-16T03:57:52;14.80;99.90
31991;DHT22;18508;49.386;8.370;2022-09-16T04:00:21;14.80;99.90
31991;DHT22;18508;49.386;8.370;2022-09-16T04:02:50;14.70;99.90
31991;DHT22;18508;49.386;8.370;2022-09-16T04:05:18;14.70;99.90
31991;DHT22;18508;49.386;8.370;2022-09-16T04:07:47;14.70;99.90
31991;DHT22;18508;49.386;8.370;2022-09-16T04:10:24;14.60;99.90
31991;DHT22;18508;49.386;8.370;2022-09-16T04:12:56;14.60;99.90
31991;DHT22;18508;49.386;8.370;2022-09-16T04:15:25;14.60;99.90
31991;DHT22;18508;49.386;8.370;2022-09-16T04:17:55;14.60;99.90
31991;DHT22;18508;49.386;8.370;2022-09-16T04:20:25;14.50;99.90
31991;DHT22;18508;49.386;8.370;2022-09-16T04:22:55;14.50;99.90
31991;DHT22;18508;49.386;8.370;2022-09-16T04:25:26;14.50;99.90
31991;DHT22;18508;49.386;8.370;2022-09-16T04:27:55;14.50;99.90
31991;DHT22;18508;49.386;8.370;2022-09-16T04:30:25;14.50;99.90
31991;DHT22;18508;49.386;8.370;2022-09-16T04:32:54;14.40;99.90
31991;DHT22;18508;49.386;8.370;2022-09-16T04:35:24;14.40;99.90
31991;DHT22;18508;49.386;8.370;2022-09-16T04:37:55;14.40;99.90
31991;DHT22;18508;49.386;8.370;2022-09-16T04:40:26;14.30;99.90
31991;DHT22;18508;49.386;8.370;2022-09-16T04:42:56;14.30;99.90
31991;DHT22;18508;49.386;8.370;2022-09-16T04:45:26;14.30;99.90
31991;DHT22;18508;49.386;8.370;2022-09-16T04:47:57;14.30;99.90
31991;DHT22;18508;49.386;8.370;2022-09-16T04:50:26;14.30;99.90
31991;DHT22;18508;49.386;8.370;2022-09-16T04:52:59;14.30;99.90
31991;DHT22;18508;49.386;8.370;2022-09-16T04:55:29;14.30;99.90
31991;DHT22;18508;49.386;8.370;2022-09-16T04:57:58;14.30;99.90
31991;DHT22;18508;49.386;8.370;2022-09-16T05:00:27;14.30;99.90
31991;DHT22;18508;49.386;8.370;2022-09-16T05:02:58;14.30;99.90
31991;DHT22;18508;49.386;8.370;2022-09-16T05:05:34;14.20;99.90
31991;DHT22;18508;49.386;8.370;2022-09-16T05:08:04;14.20;99.90
31991;DHT22;18508;49.386;8.370;2022-09-16T05:10:36;14.20;99.90
31991;DHT22;18508;49.386;8.370;2022-09-16T05:13:07;14.20;99.90
31991;DHT22;18508;49.386;8.370;2022-09-16T05:15:39;14.20;99.90
31991;DHT22;18508;49.386;8.370;2022-09-16T05:18:16;14.20;99.90
31991;DHT22;18508;49.386;8.370;2022-09-16T05:20:56;14.20;99.90
31991;DHT22;18508;49.386;8.370;2022-09-16T05:23:26;14.10;99.90
31991;DHT22;18508;49.386;8.370;2022-09-16T05:26:04;14.00;99.90
31991;DHT22;18508;49.386;8.370;2022-09-16T05:28:34;14.00;99.90
31991;DHT22;18508;49.386;8.370;2022-09-16T05:31:09;13.90;99.90
31991;DHT22;18508;49.386;8.370;2022-09-16T05:33:43;13.90;99.90
31991;DHT22;18508;49.386;8.370;2022-09-16T05:36:14;13.90;99.90
31991;DHT22;18508;49.386;8.370;2022-09-16T05:38:44;13.80;99.90
31991;DHT22;18508;49.386;8.370;2022-09-16T05:41:38;13.90;99.90
31991;DHT22;18508;49.386;8.370;2022-09-16T05:44:07;13.90;99.90
31991;DHT22;18508;49.386;8.370;2022-09-16T05:46:37;13.90;99.90
31991;DHT22;18508;49.386;8.370;2022-09-16T05:49:07;13.90;99.90
31991;DHT22;18508;49.386;8.370;2022-09-16T05:51:39;13.90;99.90
31991;DHT22;18508;49.386;8.370;2022-09-16T05:54:09;13.90;99.90
31991;DHT22;18508;49.386;8.370;2022-09-16T05:56:39;13.90;99.90
31991;DHT22;18508;49.386;8.370;2022-09-16T05:59:10;13.90;99.90
31991;DHT22;18508;49.386;8.370;2022-09-16T06:01:40;13.90;99.90
31991;DHT22;18508;49.386;8.370;2022-09-16T06:04:12;13.90;99.90
31991;DHT22;18508;49.386;8.370;2022-09-16T06:06:43;13.90;99.90
31991;DHT22;18508;49.386;8.370;2022-09-16T06:09:16;13.90;99.90
31991;DHT22;18508;49.386;8.370;2022-09-16T06:11:48;13.90;99.90
31991;DHT22;18508;49.386;8.370;2022-09-16T06:14:24;14.00;99.90
31991;DHT22;18508;49.386;8.370;2022-09-16T06:16:55;14.00;99.90
31991;DHT22;18508;49.386;8.370;2022-09-16T06:19:25;14.00;99.90
31991;DHT22;18508;49.386;8.370;2022-09-16T06:21:56;14.10;99.90
31991;DHT22;18508;49.386;8.370;2022-09-16T06:24:25;14.10;99.90
31991;DHT22;18508;49.386;8.370;2022-09-16T06:26:59;14.30;99.90
31991;DHT22;18508;49.386;8.370;2022-09-16T06:29:28;14.40;99.90
31991;DHT22;18508;49.386;8.370;2022-09-16T06:31:58;14.50;99.90
31991;DHT22;18508;49.386;8.370;2022-09-16T06:34:29;14.50;99.90
31991;DHT22;18508;49.386;8.370;2022-09-16T06:36:58;14.50;99.90
31991;DHT22;18508;49.386;8.370;2022-09-16T06:39:27;14.60;99.90
31991;DHT22;18508;49.386;8.370;2022-09-16T06:41:59;14.80;99.90
31991;DHT22;18508;49.386;8.370;2022-09-16T06:44:29;14.70;99.90
31991;DHT22;18508;49.386;8.370;2022-09-16T06:47:00;14.80;99.90
31991;DHT22;18508;49.386;8.370;2022-09-16T06:49:32;14.80;99.90
31991;DHT22;18508;49.386;8.370;2022-09-16T06:52:02;14.90;99.90
31991;DHT22;18508;49.386;8.370;2022-09-16T06:54:42;15.00;99.90
31991;DHT22;18508;49.386;8.370;2022-09-16T06:57:15;15.10;99.90
31991;DHT22;18508;49.386;8.370;2022-09-16T06:59:46;15.20;99.90
31991;DHT22;18508;49.386;8.370;2022-09-16T07:02:19;15.20;99.90
31991;DHT22;18508;49.386;8.370;2022-09-16T07:04:47;15.40;99.90
31991;DHT22;18508;49.386;8.370;2022-09-16T07:07:19;15.40;99.90
31991;DHT22;18508;49.386;8.370;2022-09-16T07:09:50;15.40;99.90
31991;DHT22;18508;49.386;8.370;2022-09-16T07:12:34;15.50;99.90
31991;DHT22;18508;49.386;8.370;2022-09-16T07:15:11;15.50;99.90
31991;DHT22;18508;49.386;8.370;2022-09-16T07:17:47;15.50;99.90
31991;DHT22;18508;49.386;8.370;2022-09-16T07:20:21;15.50;99.90
31991;DHT22;18508;49.386;8.370;2022-09-16T07:22:52;15.60;99.90
31991;DHT22;18508;49.386;8.370;2022-09-16T07:25:30;15.50;1.00
31991;DHT22;18508;49.386;8.370;2022-09-16T07:28:06;15.50;1.00
31991;DHT22;18508;49.386;8.370;2022-09-16T07:30:49;15.50;1.00
31991;DHT22;18508;49.386;8.370;2022-09-16T07:33:23;15.50;1.00
31991;DHT22;18508;49.386;8.370;2022-09-16T07:36:05;15.40;1.00
31991;DHT22;18508;49.386;8.370;2022-09-16T07:38:43;15.40;1.00
31991;DHT22;18508;49.386;8.370;2022-09-16T07:41:24;15.40;1.00
31991;DHT22;18508;49.386;8.370;2022-09-16T07:44:04;15.50;1.00
31991;DHT22;18508;49.386;8.370;2022-09-16T07:46:42;15.50;1.00
31991;DHT22;18508;49.386;8.370;2022-09-16T07:49:18;15.50;1.00
31991;DHT22;18508;49.386;8.370;2022-09-16T07:52:02;15.50;1.00
31991;DHT22;18508;49.386;8.370;2022-09-16T07:54:48;15.40;1.00
31991;DHT22;18508;49.386;8.370;2022-09-16T07:57:29;15.50;99.90
31991;DHT22;18508;49.386;8.370;2022-09-16T08:00:00;15.50;99.90
31991;DHT22;18508;49.386;8.370;2022-09-16T08:02:33;15.40;85.90
31991;DHT22;18508;49.386;8.370;2022-09-16T08:05:06;15.30;1.00
31991;DHT22;18508;49.386;8.370;2022-09-16T08:07:38;16.10;1.00
31991;DHT22;18508;49.386;8.370;2022-09-16T08:10:09;15.60;1.00
31991;DHT22;18508;49.386;8.370;2022-09-16T08:15:22;15.50;99.90
31991;DHT22;18508;49.386;8.370;2022-09-16T08:17:52;15.50;1.00
31991;DHT22;18508;49.386;8.370;2022-09-16T08:20:26;15.60;99.90
31991;DHT22;18508;49.386;8.370;2022-09-16T08:22:57;15.60;99.90
31991;DHT22;18508;49.386;8.370;2022-09-16T08:25:29;15.70;99.90
31991;DHT22;18508;49.386;8.370;2022-09-16T08:28:05;15.70;48.80
31991;DHT22;18508;49.386;8.370;2022-09-16T08:30:46;15.90;99.90
31991;DHT22;18508;49.386;8.370;2022-09-16T08:33:43;15.90;1.00
31991;DHT22;18508;49.386;8.370;2022-09-16T08:36:22;16.00;1.00
31991;DHT22;18508;49.386;8.370;2022-09-16T08:38:54;16.10;99.90
31991;DHT22;18508;49.386;8.370;2022-09-16T08:41:56;16.20;1.00
31991;DHT22;18508;49.386;8.370;2022-09-16T08:44:46;16.40;1.00
31991;DHT22;18508;49.386;8.370;2022-09-16T08:47:31;16.50;27.20
31991;DHT22;18508;49.386;8.370;2022-09-16T08:50:14;16.60;95.70
31991;DHT22;18508;49.386;8.370;2022-09-16T08:52:49;16.60;99.90
31991;DHT22;18508;49.386;8.370;2022-09-16T08:55:26;16.70;23.70
31991;DHT22;18508;49.386;8.370;2022-09-16T08:58:01;16.80;99.90
31991;DHT22;18508;49.386;8.370;2022-09-16T09:00:42;17.10;99.90
31991;DHT22;18508;49.386;8.370;2022-09-16T09:03:37;17.10;24.90
31991;DHT22;18508;49.386;8.370;2022-09-16T09:06:20;17.20;99.90
31991;DHT22;18508;49.386;8.370;2022-09-16T09:08:59;17.20;99.90
31991;DHT22;18508;49.386;8.370;2022-09-16T09:12:01;17.20;99.90
31991;DHT22;18508;49.386;8.370;2022-09-16T09:17:58;17.30;99.90
31991;DHT22;18508;49.386;8.370;2022-09-16T09:20:50;17.30;99.90
31991;DHT22;18508;49.386;8.370;2022-09-16T09:26:58;17.30;99.90
31991;DHT22;18508;49.386;8.370;2022-09-16T09:29:53;17.10;1.00
31991;DHT22;18508;49.386;8.370;2022-09-16T09:32:38;17.40;99.90
31991;DHT22;18508;49.386;8.370;2022-09-16T09:35:24;16.10;70.00
31991;DHT22;18508;49.386;8.370;2022-09-16T09:41:09;17.80;99.90
31991;DHT22;18508;49.386;8.370;2022-09-16T09:43:44;18.10;99.90
31991;DHT22;18508;49.386;8.370;2022-09-16T09:46:17;17.90;99.90
31991;DHT22;18508;49.386;8.370;2022-09-16T09:48:54;17.70;99.90
31991;DHT22;18508;49.386;8.370;2022-09-16T09:51:33;17.70;99.90
31991;DHT22;18508;49.386;8.370;2022-09-16T09:54:12;17.40;99.90
31991;DHT22;18508;49.386;8.370;2022-09-16T09:56:44;17.70;99.90
31991;DHT22;18508;49.386;8.370;2022-09-16T09:59:20;17.70;99.90
31991;DHT22;18508;49.386;8.370;2022-09-16T10:01:53;17.80;99.90
31991;DHT22;18508;49.386;8.370;2022-09-16T10:04:24;17.70;99.90
31991;DHT22;18508;49.386;8.370;2022-09-16T10:06:56;17.70;99.90
31991;DHT22;18508;49.386;8.370;2022-09-16T10:09:28;18.30;99.90
31991;DHT22;18508;49.386;8.370;2022-09-16T10:12:02;17.90;99.90
31991;DHT22;18508;49.386;8.370;2022-09-16T10:14:36;17.90;99.90
31991;DHT22;18508;49.386;8.370;2022-09-16T10:17:14;18.00;99.90
31991;DHT22;18508;49.386;8.370;2022-09-16T10:19:53;18.10;99.90
31991;DHT22;18508;49.386;8.370;2022-09-16T10:22:25;18.30;99.90
31991;DHT22;18508;49.386;8.370;2022-09-16T10:24:58;18.20;99.90
31991;DHT22;18508;49.386;8.370;2022-09-16T10:27:30;18.20;99.90
31991;DHT22;18508;49.386;8.370;2022-09-16T10:30:10;18.60;99.90
31991;DHT22;18508;49.386;8.370;2022-09-16T10:32:50;18.80;99.90
31991;DHT22;18508;49.386;8.370;2022-09-16T10:35:22;18.70;88.60
31991;DHT22;18508;49.386;8.370;2022-09-16T10:37:53;19.00;84.30
31991;DHT22;18508;49.386;8.370;2022-09-16T10:40:24;19.10;78.70
31991;DHT22;18508;49.386;8.370;2022-09-16T10:42:58;18.90;63.20
31991;DHT22;18508;49.386;8.370;2022-09-16T10:45:31;18.70;54.00
31991;DHT22;18508;49.386;8.370;2022-09-16T10:48:05;18.60;56.20
31991;DHT22;18508;49.386;8.370;2022-09-16T10:50:33;18.50;54.30
31991;DHT22;18508;49.386;8.370;2022-09-16T10:53:02;18.30;99.90
31991;DHT22;18508;49.386;8.370;2022-09-16T10:55:56;18.50;62.80
31991;DHT22;18508;49.386;8.370;2022-09-16T10:58:26;19.20;99.90
31991;DHT22;18508;49.386;8.370;2022-09-16T11:01:05;18.80;48.70
31991;DHT22;18508;49.386;8.370;2022-09-16T11:04:03;19.00;41.10
31991;DHT22;18508;49.386;8.370;2022-09-16T11:06:55;19.20;40.10
31991;DHT22;18508;49.386;8.370;2022-09-16T11:09:34;18.90;41.60
31991;DHT22;18508;49.386;8.370;2022-09-16T11:12:19;18.90;45.00
31991;DHT22;18508;49.386;8.370;2022-09-16T11:14:58;18.90;42.40
31991;DHT22;18508;49.386;8.370;2022-09-16T11:17:48;18.90;45.20
31991;DHT22;18508;49.386;8.370;2022-09-16T11:20:43;19.10;51.00
31991;DHT22;18508;49.386;8.370;2022-09-16T11:23:28;18.90;50.80
31991;DHT22;18508;49.386;8.370;2022-09-16T11:26:06;18.80;57.80
31991;DHT22;18508;49.386;8.370;2022-09-16T11:28:53;18.80;63.90
31991;DHT22;18508;49.386;8.370;2022-09-16T11:31:35;18.60;99.90
31991;DHT22;18508;49.386;8.370;2022-09-16T11:34:18;18.60;54.00
31991;DHT22;18508;49.386;8.370;2022-09-16T11:36:54;18.60;50.30
31991;DHT22;18508;49.386;8.370;2022-09-16T11:39:40;18.80;50.60
31991;DHT22;18508;49.386;8.370;2022-09-16T11:42:23;18.90;53.90
31991;DHT22;18508;49.386;8.370;2022-09-16T11:45:00;19.10;55.00
31991;DHT22;18508;49.386;8.370;2022-09-16T11:47:44;19.20;54.40
31991;DHT22;18508;49.386;8.370;2022-09-16T11:50:26;19.50;49.00
31991;DHT22;18508;49.386;8.370;2022-09-16T11:53:21;19.70;46.10
31991;DHT22;18508;49.386;8.370;2022-09-16T11:56:06;20.00;39.50
31991;DHT22;18508;49.386;8.370;2022-09-16T11:58:46;20.30;37.20
31991;DHT22;18508;49.386;8.370;2022-09-16T12:01:27;20.40;28.60
31991;DHT22;18508;49.386;8.370;2022-09-16T12:04:14;20.00;28.10
31991;DHT22;18508;49.386;8.370;2022-09-16T12:06:53;19.30;99.90
31991;DHT22;18508;49.386;8.370;2022-09-16T12:09:28;19.30;27.20
31991;DHT22;18508;49.386;8.370;2022-09-16T12:12:11;19.00;30.80
31991;DHT22;18508;49.386;8.370;2022-09-16T12:14:42;18.50;49.50
31991;DHT22;18508;49.386;8.370;2022-09-16T12:17:18;17.90;1.00
31991;DHT22;18508;49.386;8.370;2022-09-16T12:19:58;17.20;1.40
31991;DHT22;18508;49.386;8.370;2022-09-16T12:22:30;16.80;57.20
31991;DHT22;18508;49.386;8.370;2022-09-16T12:25:10;16.70;99.90
31991;DHT22;18508;49.386;8.370;2022-09-16T12:27:43;16.80;1.00
31991;DHT22;18508;49.386;8.370;2022-09-16T12:30:26;16.90;99.90
31991;DHT22;18508;49.386;8.370;2022-09-16T12:33:05;20.10;1.00
31991;DHT22;18508;49.386;8.370;2022-09-16T12:35:53;17.30;1.00
31991;DHT22;18508;49.386;8.370;2022-09-16T12:38:22;17.30;1.00
31991;DHT22;18508;49.386;8.370;2022-09-16T12:41:06;17.40;99.90
31991;DHT22;18508;49.386;8.370;2022-09-16T12:44:00;17.60;99.90
31991;DHT22;18508;49.386;8.370;2022-09-16T12:46:54;17.70;99.90
31991;DHT22;18508;49.386;8.370;2022-09-16T12:49:55;17.80;99.90
31991;DHT22;18508;49.386;8.370;2022-09-16T12:52:55;17.90;99.90
31991;DHT22;18508;49.386;8.370;2022-09-16T12:55:47;18.90;99.90
31991;DHT22;18508;49.386;8.370;2022-09-16T12:58:48;18.90;99.90
31991;DHT22;18508;49.386;8.370;2022-09-16T13:01:21;19.20;99.90
31991;DHT22;18508;49.386;8.370;2022-09-16T13:03:54;19.70;99.90
31991;DHT22;18508;49.386;8.370;2022-09-16T13:06:26;20.00;97.70
31991;DHT22;18508;49.386;8.370;2022-09-16T13:09:14;20.20;91.30
31991;DHT22;18508;49.386;8.370;2022-09-16T13:11:52;20.50;56.90
31991;DHT22;18508;49.386;8.370;2022-09-16T13:14:51;20.20;36.20
31991;DHT22;18508;49.386;8.370;2022-09-16T13:17:29;20.00;35.40
31991;DHT22;18508;49.386;8.370;2022-09-16T13:20:03;19.80;31.20
31991;DHT22;18508;49.386;8.370;2022-09-16T13:22:37;19.80;34.20
31991;DHT22;18508;49.386;8.370;2022-09-16T13:25:20;19.90;36.10
31991;DHT22;18508;49.386;8.370;2022-09-16T13:27:55;19.80;36.50
31991;DHT22;18508;49.386;8.370;2022-09-16T13:30:31;19.70;33.20
31991;DHT22;18508;49.386;8.370;2022-09-16T13:33:23;19.60;30.70
31991;DHT22;18508;49.386;8.370;2022-09-16T13:36:16;19.70;33.20
31991;DHT22;18508;49.386;8.370;2022-09-16T13:38:56;19.60;32.30
31991;DHT22;18508;49.386;8.370;2022-09-16T13:41:33;19.60;28.30
31991;DHT22;18508;49.386;8.370;2022-09-16T13:44:38;19.50;99.90
31991;DHT22;18508;49.386;8.370;2022-09-16T13:47:16;19.40;32.70
31991;DHT22;18508;49.386;8.370;2022-09-16T13:49:49;19.30;56.50
31991;DHT22;18508;49.386;8.370;2022-09-16T13:52:19;19.10;95.70
31991;DHT22;18508;49.386;8.370;2022-09-16T13:54:51;18.70;99.90
31991;DHT22;18508;49.386;8.370;2022-09-16T13:57:55;18.50;99.90
31991;DHT22;18508;49.386;8.370;2022-09-16T14:00:26;18.30;99.90
31991;DHT22;18508;49.386;8.370;2022-09-16T14:03:30;18.00;99.90
31991;DHT22;18508;49.386;8.370;2022-09-16T14:06:35;17.80;99.90
31991;DHT22;18508;49.386;8.370;2022-09-16T14:09:24;17.80;99.90
31991;DHT22;18508;49.386;8.370;2022-09-16T14:12:04;17.60;99.90
31991;DHT22;18508;49.386;8.370;2022-09-16T14:14:39;17.60;99.90
31991;DHT22;18508;49.386;8.370;2022-09-16T14:17:16;17.50;99.90
31991;DHT22;18508;49.386;8.370;2022-09-16T14:19:48;17.40;99.90
31991;DHT22;18508;49.386;8.370;2022-09-16T14:22:19;17.40;99.90
31991;DHT22;18508;49.386;8.370;2022-09-16T14:24:49;17.40;99.90
31991;DHT22;18508;49.386;8.370;2022-09-16T14:27:38;17.30;1.00
31991;DHT22;18508;49.386;8.370;2022-09-16T14:30:18;17.10;1.00
31991;DHT22;18508;49.386;8.370;2022-09-16T14:32:49;17.00;99.90
31991;DHT22;18508;49.386;8.370;2022-09-16T14:35:22;16.90;99.90
31991;DHT22;18508;49.386;8.370;2022-09-16T14:37:56;16.70;99.90
31991;DHT22;18508;49.386;8.370;2022-09-16T14:40:27;16.60;99.90
31991;DHT22;18508;49.386;8.370;2022-09-16T14:43:00;16.60;1.00
31991;DHT22;18508;49.386;8.370;2022-09-16T14:45:35;16.60;52.50
31991;DHT22;18508;49.386;8.370;2022-09-16T14:48:07;16.50;1.00
31991;DHT22;18508;49.386;8.370;2022-09-16T14:50:38;16.40;99.90
31991;DHT22;18508;49.386;8.370;2022-09-16T14:53:28;16.30;99.90
31991;DHT22;18508;49.386;8.370;2022-09-16T14:56:05;15.70;1.00
31991;DHT22;18508;49.386;8.370;2022-09-16T14:58:35;15.90;1.00
31991;DHT22;18508;49.386;8.370;2022-09-16T15:01:09;15.80;99.90
31991;DHT22;18508;49.386;8.370;2022-09-16T15:03:50;15.70;1.00
31991;DHT22;18508;49.386;8.370;2022-09-16T15:06:26;15.70;51.10
31991;DHT22;18508;49.386;8.370;2022-09-16T15:08:59;15.60;91.00
31991;DHT22;18508;49.386;8.370;2022-09-16T15:11:32;15.60;1.00
31991;DHT22;18508;49.386;8.370;2022-09-16T15:14:17;15.70;99.90
31991;DHT22;18508;49.386;8.370;2022-09-16T15:16:52;15.70;1.00
31991;DHT22;18508;49.386;8.370;2022-09-16T15:19:26;15.70;1.00
31991;DHT22;18508;49.386;8.370;2022-09-16T15:21:56;15.70;1.00
31991;DHT22;18508;49.386;8.370;2022-09-16T15:24:28;15.60;99.90
31991;DHT22;18508;49.386;8.370;2022-09-16T15:26:58;15.60;99.90
31991;DHT22;18508;49.386;8.370;2022-09-16T15:29:30;15.60;1.00
31991;DHT22;18508;49.386;8.370;2022-09-16T15:32:16;15.60;1.00
31991;DHT22;18508;49.386;8.370;2022-09-16T15:34:46;15.50;99.90
31991;DHT22;18508;49.386;8.370;2022-09-16T15:37:31;15.60;1.00
31991;DHT22;18508;49.386;8.370;2022-09-16T15:45:57;15.90;43.40
31991;DHT22;18508;49.386;8.370;2022-09-16T15:48:30;14.90;1.00
31991;DHT22;18508;49.386;8.370;2022-09-16T15:51:05;15.60;1.00
31991;DHT22;18508;49.386;8.370;2022-09-16T15:53:43;15.40;99.90
31991;DHT22;18508;49.386;8.370;2022-09-16T15:56:21;15.20;99.90
31991;DHT22;18508;49.386;8.370;2022-09-16T15:59:02;15.00;99.90
31991;DHT22;18508;49.386;8.370;2022-09-16T16:01:43;14.70;1.00
31991;DHT22;18508;49.386;8.370;2022-09-16T16:04:30;14.80;1.00
31991;DHT22;18508;49.386;8.370;2022-09-16T16:07:03;15.20;1.00
31991;DHT22;18508;49.386;8.370;2022-09-16T16:09:43;14.90;99.90
31991;DHT22;18508;49.386;8.370;2022-09-16T16:12:13;15.20;99.90
31991;DHT22;18508;49.386;8.370;2022-09-16T16:14:43;14.80;1.00
31991;DHT22;18508;49.386;8.370;2022-09-16T16:17:15;14.80;7.90
31991;DHT22;18508;49.386;8.370;2022-09-16T16:19:50;15.10;1.00
31991;DHT22;18508;49.386;8.370;2022-09-16T16:29:46;14.80;99.90
31991;DHT22;18508;49.386;8.370;2022-09-16T16:32:17;15.10;1.00
31991;DHT22;18508;49.386;8.370;2022-09-16T16:34:48;15.10;1.00
31991;DHT22;18508;49.386;8.370;2022-09-16T16:37:20;15.00;99.90
31991;DHT22;18508;49.386;8.370;2022-09-16T16:40:09;14.90;99.90
31991;DHT22;18508;49.386;8.370;2022-09-16T16:42:39;14.80;99.90
31991;DHT22;18508;49.386;8.370;2022-09-16T16:45:16;14.70;1.00
31991;DHT22;18508;49.386;8.370;2022-09-16T16:47:46;14.70;1.00
31991;DHT22;18508;49.386;8.370;2022-09-16T16:50:16;14.60;1.00
31991;DHT22;18508;49.386;8.370;2022-09-16T16:52:50;14.50;22.20
31991;DHT22;18508;49.386;8.370;2022-09-16T16:55:19;14.50;99.90
31991;DHT22;18508;49.386;8.370;2022-09-16T16:57:48;14.50;1.00
31991;DHT22;18508;49.386;8.370;2022-09-16T17:00:16;14.50;99.90
31991;DHT22;18508;49.386;8.370;2022-09-16T17:02:45;14.50;99.90